Time;durP1;ratioP1;P1;durP2;ratioP2;P2;SDS_P1;SDS_P2;PMS_P1;PMS_P2;Temp;Humidity;BMP_temperature;BMP_pressure;BME280_temperature;BME280_humidity;BME280_pressure;Samples;Min_cycle;Max_cycle;Signal;HPM_P1;HPM_P2
2022/07/20 00:00:18;;;;;;;;;;;;;;;23.51;39.86;100868.53;4841877;28;98580;-57
2022/07/20 00:03:22;;;;;;;;;;;;;;;23.42;39.90;100876.06;4841459;28;98155;-62
2022/07/20 00:06:15;;;;;;;;;;;;;;;23.34;39.83;100869.53;4842117;28;97935;-63
2022/07/20 00:12:10;;;;;;;;;;;;;;;23.19;40.19;100868.31;4841728;28;97746;-56
2022/07/20 00:15:02;;;;;;;;;;;;;;;23.15;40.02;100864.63;4840795;28;98960;-56
2022/07/20 00:17:55;;;;;;;;;;;;;;;23.12;40.38;100872.75;4841817;28;98039;-64
2022/07/20 00:20:47;;;;;;;;;;;;;;;23.07;40.33;100861.97;4841831;28;99366;-57
2022/07/20 00:23:40;;;;;;;;;;;;;;;23.01;40.39;100872.41;4841169;28;98568;-56
2022/07/20 00:26:32;;;;;;;;;;;;;;;22.99;40.57;100877.41;4842059;28;98524;-62
2022/07/20 00:29:25;;;;;;;;;;;;;;;22.96;40.46;100876.19;4905321;28;98148;-62
2022/07/20 00:32:18;;;;;;;;;;;;;;;22.95;40.40;100876.50;4841419;28;98401;-62
2022/07/20 00:35:11;;;;;;;;;;;;;;;22.93;40.55;100876.84;4842175;28;98712;-57
2022/07/20 00:38:03;;;;;;;;;;;;;;;22.89;40.52;100875.09;4841439;28;98391;-62
2022/07/20 00:40:56;;;;;;;;;;;;;;;22.86;40.69;100878.53;4841320;28;98357;-57
2022/07/20 00:44:26;;;;;;;;;;;;;;;22.82;40.80;100875.66;4842299;28;98338;-56
2022/07/20 00:47:19;;;;;;;;;;;;;;;22.77;40.85;100881.38;4897711;28;99289;-63
2022/07/20 00:50:11;;;;;;;;;;;;;;;22.73;40.94;100870.25;4840725;28;98702;-56
2022/07/20 00:53:04;;;;;;;;;;;;;;;22.70;41.08;100870.91;4841130;28;98408;-62
2022/07/20 00:55:57;;;;;;;;;;;;;;;22.68;41.13;100878.72;4904913;28;97864;-62
2022/07/20 00:58:49;;;;;;;;;;;;;;;22.65;41.24;100876.63;4841278;28;98535;-57
2022/07/20 01:01:42;;;;;;;;;;;;;;;22.61;41.42;100872.97;4841847;28;98292;-59
2022/07/20 01:04:35;;;;;;;;;;;;;;;22.55;41.51;100877.84;4840622;28;97948;-57
2022/07/20 01:07:27;;;;;;;;;;;;;;;22.52;41.53;100884.03;4841692;28;97745;-57
2022/07/20 01:10:20;;;;;;;;;;;;;;;22.49;41.59;100881.16;4841002;28;98013;-57
2022/07/20 01:13:12;;;;;;;;;;;;;;;22.47;41.68;100886.19;4841033;28;98456;-57
2022/07/20 01:16:05;;;;;;;;;;;;;;;22.44;41.82;100884.94;4840498;28;98470;-57
2022/07/20 01:18:58;;;;;;;;;;;;;;;22.42;41.89;100883.66;4840541;28;97893;-57
2022/07/20 01:21:50;;;;;;;;;;;;;;;22.38;41.98;100882.72;4885678;28;98119;-62
2022/07/20 01:24:43;;;;;;;;;;;;;;;22.35;42.21;100880.63;4838454;28;98095;-64
2022/07/20 01:27:36;;;;;;;;;;;;;;;22.29;42.13;100882.81;4841206;28;97838;-62
2022/07/20 01:30:28;;;;;;;;;;;;;;;22.27;42.36;100890.56;4840991;28;98064;-62
2022/07/20 01:33:21;;;;;;;;;;;;;;;22.25;42.35;100885.41;4840720;28;98192;-62
2022/07/20 01:36:13;;;;;;;;;;;;;;;22.21;42.54;100880.94;4841062;28;98481;-62
2022/07/20 01:39:06;;;;;;;;;;;;;;;22.18;42.60;100881.59;4840185;28;97949;-61
2022/07/20 01:41:59;;;;;;;;;;;;;;;22.14;42.71;100884.22;4841467;28;98067;-56
2022/07/20 01:44:51;;;;;;;;;;;;;;;22.11;42.76;100882.09;4839733;28;99377;-64
2022/07/20 01:47:44;;;;;;;;;;;;;;;22.10;42.96;100879.69;4839746;28;98892;-63
2022/07/20 01:50:36;;;;;;;;;;;;;;;22.06;43.05;100876.81;4839219;28;98045;-63
2022/07/20 01:53:29;;;;;;;;;;;;;;;22.02;43.07;100878.63;4840361;28;97954;-62
2022/07/20 01:56:22;;;;;;;;;;;;;;;21.98;43.26;100885.94;4840126;28;99023;-56
2022/07/20 01:59:15;;;;;;;;;;;;;;;21.96;43.34;100890.94;4839340;28;98559;-57
2022/07/20 02:02:08;;;;;;;;;;;;;;;21.91;43.47;100893.88;4904098;28;98230;-63
2022/07/20 02:05:01;;;;;;;;;;;;;;;21.87;43.45;100885.50;4840582;28;97992;-62
2022/07/20 02:07:54;;;;;;;;;;;;;;;21.81;43.31;100886.81;4840184;28;98917;-63
2022/07/20 02:10:47;;;;;;;;;;;;;;;21.76;43.54;100887.81;4820391;28;98399;-64
2022/07/20 02:13:40;;;;;;;;;;;;;;;21.73;43.80;100891.25;4828898;28;98404;-62
2022/07/20 02:16:33;;;;;;;;;;;;;;;21.69;43.86;100892.22;4840542;28;97778;-56
2022/07/20 02:19:25;;;;;;;;;;;;;;;21.65;43.81;100896.78;4838976;28;98530;-62
2022/07/20 02:22:18;;;;;;;;;;;;;;;21.60;44.10;100892.28;4840182;28;98592;-62
2022/07/20 02:25:10;;;;;;;;;;;;;;;21.55;44.03;100892.47;4839409;28;98258;-57
2022/07/20 02:28:02;;;;;;;;;;;;;;;21.51;44.21;100894.28;4840470;28;97899;-63
2022/07/20 02:30:55;;;;;;;;;;;;;;;21.46;44.16;100895.28;4821165;28;98120;-57
2022/07/20 02:33:48;;;;;;;;;;;;;;;21.42;44.38;100888.03;4829121;28;98568;-57
2022/07/20 02:36:40;;;;;;;;;;;;;;;21.38;44.54;100890.66;4840824;28;98086;-57
2022/07/20 02:39:33;;;;;;;;;;;;;;;21.35;44.42;100885.00;4839269;28;97876;-57
2022/07/20 02:42:26;;;;;;;;;;;;;;;21.33;44.72;100896.28;4839769;28;98297;-56
2022/07/20 02:45:18;;;;;;;;;;;;;;;21.30;44.77;100891.47;4821325;28;98284;-63
2022/07/20 02:48:20;;;;;;;;;;;;;;;21.25;44.90;100894.38;4824973;28;98031;-56
2022/07/20 02:51:12;;;;;;;;;;;;;;;21.18;45.10;100892.16;4838622;28;97866;-64
2022/07/20 02:54:05;;;;;;;;;;;;;;;21.13;45.24;100889.56;4841035;28;98725;-64
2022/07/20 02:56:58;;;;;;;;;;;;;;;21.07;45.22;100888.97;4903590;28;100106;-62
2022/07/20 02:59:51;;;;;;;;;;;;;;;21.01;45.39;100890.25;4902377;28;98399;-63
2022/07/20 03:02:44;;;;;;;;;;;;;;;20.96;45.56;100895.13;4842155;28;97922;-57
2022/07/20 03:05:36;;;;;;;;;;;;;;;20.89;45.45;100890.13;4842993;28;97972;-63
2022/07/20 03:08:29;;;;;;;;;;;;;;;20.83;45.50;100889.53;4842892;28;98085;-64
2022/07/20 03:11:21;;;;;;;;;;;;;;;20.79;45.60;100894.03;4842172;28;97850;-62
2022/07/20 03:14:14;;;;;;;;;;;;;;;20.74;45.81;100896.94;4843618;28;97835;-56
2022/07/20 03:17:06;;;;;;;;;;;;;;;20.68;45.87;100895.50;4843492;28;98590;-56
2022/07/20 03:19:59;;;;;;;;;;;;;;;20.63;46.08;100900.34;4842446;28;98015;-56
2022/07/20 03:22:52;;;;;;;;;;;;;;;20.60;46.19;100893.59;4824067;28;98167;-62
2022/07/20 03:25:44;;;;;;;;;;;;;;;20.57;46.34;100899.72;4830971;28;97741;-62
2022/07/20 03:28:28;;;;;;;;;;;;;;;;;;4859925;28;97869;-61
2022/07/20 03:31:21;;;;;;;;;;;;;;;20.48;46.56;100910.66;4842505;28;98452;-62
2022/07/20 03:34:13;;;;;;;;;;;;;;;20.45;46.47;100907.75;4842567;28;98394;-63
2022/07/20 03:37:06;;;;;;;;;;;;;;;20.43;46.65;100912.72;4842460;28;97780;-62
2022/07/20 03:39:58;;;;;;;;;;;;;;;20.40;46.52;100905.19;4842227;28;98198;-61
2022/07/20 03:42:51;;;;;;;;;;;;;;;20.37;46.61;100908.56;4824267;28;98714;-56
2022/07/20 03:45:44;;;;;;;;;;;;;;;20.34;46.55;100902.59;4842557;28;97976;-61
2022/07/20 03:48:36;;;;;;;;;;;;;;;20.32;46.58;100901.31;4843316;28;97948;-61
2022/07/20 03:51:29;;;;;;;;;;;;;;;20.31;46.74;100905.16;4823760;28;97745;-56
2022/07/20 03:54:22;;;;;;;;;;;;;;;20.32;46.83;100909.53;4823628;28;98525;-61
2022/07/20 03:57:14;;;;;;;;;;;;;;;20.33;46.75;100911.13;4823379;28;97927;-62
2022/07/20 04:00:07;;;;;;;;;;;;;;;20.34;46.71;100904.53;4841829;28;97823;-62
2022/07/20 04:03:00;;;;;;;;;;;;;;;20.35;46.92;100906.91;4842121;28;98369;-56
2022/07/20 04:05:53;;;;;;;;;;;;;;;20.40;46.95;100911.44;4842078;28;99255;-62
2022/07/20 04:08:48;;;;;;;;;;;;;;;20.43;46.90;100910.78;4841410;28;98567;-56
2022/07/20 04:11:40;;;;;;;;;;;;;;;20.47;46.73;100910.94;4841134;28;97963;-63
2022/07/20 04:14:33;;;;;;;;;;;;;;;20.53;46.85;100907.75;4840863;28;98730;-63
2022/07/20 04:17:25;;;;;;;;;;;;;;;20.58;46.82;100909.53;4841906;28;98388;-63
2022/07/20 04:20:18;;;;;;;;;;;;;;;20.62;46.70;100902.28;4840412;28;97856;-63
2022/07/20 04:23:11;;;;;;;;;;;;;;;20.66;46.73;100907.91;4841931;28;98482;-63
2022/07/20 04:26:04;;;;;;;;;;;;;;;20.72;46.77;100903.88;4841869;28;98416;-63
2022/07/20 04:28:56;;;;;;;;;;;;;;;20.79;46.74;100907.72;4840226;28;97826;-62
2022/07/20 04:31:49;;;;;;;;;;;;;;;20.88;46.62;100912.38;4842159;28;97981;-62
2022/07/20 04:34:42;;;;;;;;;;;;;;;20.96;46.68;100915.09;4841337;28;98176;-56
2022/07/20 04:37:34;;;;;;;;;;;;;;;21.04;46.45;100908.78;4841718;28;98128;-56
2022/07/20 04:40:27;;;;;;;;;;;;;;;21.13;46.61;100916.97;4840156;28;98234;-56
2022/07/20 04:43:19;;;;;;;;;;;;;;;21.24;46.47;100915.50;4827025;28;98065;-56
2022/07/20 04:46:12;;;;;;;;;;;;;;;21.36;46.49;100919.50;4841029;28;97960;-56
2022/07/20 04:49:05;;;;;;;;;;;;;;;21.48;46.42;100914.94;4840293;28;99061;-61
2022/07/20 04:51:57;;;;;;;;;;;;;;;21.61;46.45;100924.06;4842342;28;98602;-56
2022/07/20 04:54:50;;;;;;;;;;;;;;;21.73;46.37;100918.69;4841256;28;98294;-56
2022/07/20 04:57:43;;;;;;;;;;;;;;;21.85;46.47;100928.94;4841777;28;98138;-57
2022/07/20 05:00:35;;;;;;;;;;;;;;;21.96;46.09;100929.34;4841655;28;99020;-56
2022/07/20 05:03:28;;;;;;;;;;;;;;;22.07;46.13;100933.31;4904543;28;99393;-61
2022/07/20 05:06:21;;;;;;;;;;;;;;;22.20;46.04;100931.47;4841406;28;97841;-56
2022/07/20 05:09:13;;;;;;;;;;;;;;;22.36;45.86;100932.50;4840626;28;98683;-57
2022/07/20 05:12:06;;;;;;;;;;;;;;;22.52;45.78;100932.69;4826767;28;98400;-62
2022/07/20 05:14:58;;;;;;;;;;;;;;;22.69;45.67;100935.25;4840149;28;98622;-56
2022/07/20 05:17:51;;;;;;;;;;;;;;;22.88;45.39;100931.22;4840924;28;98336;-62
2022/07/20 05:20:44;;;;;;;;;;;;;;;23.07;45.38;100936.19;4840145;28;97810;-56
2022/07/20 05:23:36;;;;;;;;;;;;;;;23.27;45.03;100936.13;4840586;28;99063;-62
2022/07/20 05:26:29;;;;;;;;;;;;;;;23.48;45.06;100941.53;4841805;28;98516;-56
2022/07/20 05:29:21;;;;;;;;;;;;;;;23.68;44.54;100947.28;4841140;28;98236;-61
2022/07/20 05:32:14;;;;;;;;;;;;;;;23.86;44.65;100950.63;4841600;28;97930;-61
2022/07/20 05:35:07;;;;;;;;;;;;;;;24.05;44.47;100939.81;4840213;28;98641;-63
2022/07/20 05:38:00;;;;;;;;;;;;;;;24.22;44.22;100941.50;4841414;28;98677;-57
2022/07/20 05:40:52;;;;;;;;;;;;;;;24.38;44.14;100941.56;4840333;28;97820;-56
2022/07/20 05:43:45;;;;;;;;;;;;;;;24.59;43.72;100947.69;4837980;28;98351;-61
2022/07/20 05:46:38;;;;;;;;;;;;;;;24.79;43.66;100934.06;4851724;28;98040;-62
2022/07/20 05:49:30;;;;;;;;;;;;;;;25.03;43.55;100944.94;4856574;28;98745;-62
2022/07/20 05:52:23;;;;;;;;;;;;;;;25.28;42.91;100945.63;4840187;28;97883;-56
2022/07/20 05:55:15;;;;;;;;;;;;;;;25.58;42.79;100948.72;4829709;28;98063;-63
2022/07/20 05:58:08;;;;;;;;;;;;;;;25.86;42.47;100945.91;4841119;28;98805;-63
2022/07/20 06:01:01;;;;;;;;;;;;;;;26.20;42.22;100943.47;4820864;28;98900;-57
2022/07/20 06:03:53;;;;;;;;;;;;;;;26.99;41.32;100950.56;4838901;28;97793;-62
2022/07/20 06:06:46;;;;;;;;;;;;;;;28.48;38.99;100954.13;4840675;28;98120;-64
2022/07/20 06:09:38;;;;;;;;;;;;;;;28.77;39.55;100944.16;4839455;28;98757;-57
2022/07/20 06:12:42;;;;;;;;;;;;;;;30.37;37.54;100950.19;4838037;28;98350;-64
2022/07/20 06:15:35;;;;;;;;;;;;;;;31.89;35.49;100961.97;4839951;28;98209;-63
2022/07/20 06:18:28;;;;;;;;;;;;;;;31.52;36.42;100952.06;4840592;28;97926;-63
2022/07/20 06:21:20;;;;;;;;;;;;;;;32.18;35.79;100956.31;4839655;28;98297;-57
2022/07/20 06:24:14;;;;;;;;;;;;;;;33.46;33.93;100952.03;4839744;28;98626;-57
2022/07/20 06:27:06;;;;;;;;;;;;;;;33.05;34.77;100951.91;4840518;28;98586;-57
2022/07/20 06:29:59;;;;;;;;;;;;;;;33.10;34.74;100952.28;4839913;28;97838;-58
2022/07/20 06:32:52;;;;;;;;;;;;;;;33.27;34.21;100942.19;4841399;28;98772;-63
2022/07/20 06:35:44;;;;;;;;;;;;;;;33.43;33.98;100945.22;4839871;28;98312;-57
2022/07/20 06:38:37;;;;;;;;;;;;;;;33.59;33.92;100949.50;4842837;28;98244;-63
2022/07/20 06:41:41;;;;;;;;;;;;;;;33.74;33.39;100945.38;4843001;28;97999;-57
2022/07/20 06:44:33;;;;;;;;;;;;;;;33.87;32.72;100954.00;4838218;28;98360;-57
2022/07/20 06:47:26;;;;;;;;;;;;;;;33.99;32.58;100949.91;4842289;28;98203;-64
2022/07/20 06:50:19;;;;;;;;;;;;;;;34.09;32.38;100955.41;4843386;28;98577;-57
2022/07/20 06:53:12;;;;;;;;;;;;;;;34.22;31.71;100952.06;4841945;28;97895;-57
2022/07/20 06:56:04;;;;;;;;;;;;;;;34.37;31.87;100948.66;4843439;28;98218;-65
2022/07/20 06:58:57;;;;;;;;;;;;;;;34.54;31.09;100951.66;4842296;28;98639;-63
2022/07/20 07:01:50;;;;;;;;;;;;;;;34.72;31.12;100943.03;4842689;28;98221;-57
2022/07/20 07:04:42;;;;;;;;;;;;;;;34.90;30.65;100947.16;4838277;28;97907;-57
2022/07/20 07:07:35;;;;;;;;;;;;;;;35.07;30.61;100941.72;4842655;28;98487;-63
2022/07/20 07:10:27;;;;;;;;;;;;;;;35.26;30.41;100937.44;4841027;28;97746;-58
2022/07/20 07:13:20;;;;;;;;;;;;;;;35.46;30.11;100938.25;4842419;28;97926;-57
2022/07/20 07:16:13;;;;;;;;;;;;;;;35.61;29.69;100931.22;4842803;28;97851;-64
2022/07/20 07:19:06;;;;;;;;;;;;;;;35.86;29.56;100933.53;4907330;28;99530;-57
2022/07/20 07:21:58;;;;;;;;;;;;;;;36.10;29.22;100934.28;4842062;28;98775;-58
2022/07/20 07:24:51;;;;;;;;;;;;;;;36.38;28.12;100924.47;4841876;28;98249;-58
2022/07/20 07:27:44;;;;;;;;;;;;;;;36.69;27.68;100923.44;4839687;28;98231;-58
2022/07/20 07:30:36;;;;;;;;;;;;;;;36.95;27.54;100922.44;4841707;28;98270;-63
2022/07/20 07:33:29;;;;;;;;;;;;;;;37.21;27.07;100923.38;4842144;28;98879;-57
2022/07/20 07:36:22;;;;;;;;;;;;;;;37.49;26.66;100932.31;4841246;28;97996;-65
2022/07/20 07:39:15;;;;;;;;;;;;;;;37.74;26.23;100926.06;4842415;28;97885;-57
2022/07/20 07:42:08;;;;;;;;;;;;;;;37.98;25.66;100930.19;4842371;28;98358;-57
2022/07/20 07:45:06;;;;;;;;;;;;;;;38.18;25.51;100929.25;4841811;28;98977;-58
2022/07/20 07:47:58;;;;;;;;;;;;;;;38.38;24.98;100927.03;4840688;28;98026;-63
2022/07/20 07:50:51;;;;;;;;;;;;;;;38.60;24.43;100932.03;4842276;28;98084;-58
2022/07/20 07:53:44;;;;;;;;;;;;;;;38.76;24.62;100929.09;4842547;28;98796;-59
2022/07/20 07:56:36;;;;;;;;;;;;;;;38.90;24.88;100931.47;4841354;28;98537;-62
2022/07/20 07:59:29;;;;;;;;;;;;;;;39.07;24.86;100926.50;4841911;28;99050;-58
2022/07/20 08:02:22;;;;;;;;;;;;;;;39.38;24.71;100931.50;4823589;28;98270;-58
2022/07/20 08:05:14;;;;;;;;;;;;;;;39.69;23.67;100926.00;4831519;28;99099;-63
2022/07/20 08:08:10;;;;;;;;;;;;;;;40.06;23.56;100915.78;4841425;28;98393;-62
2022/07/20 08:11:03;;;;;;;;;;;;;;;40.47;23.38;100922.28;4905749;28;98167;-57
2022/07/20 08:13:56;;;;;;;;;;;;;;;40.82;22.12;100910.84;4834987;28;98363;-58
2022/07/20 08:16:49;;;;;;;;;;;;;;;41.20;22.00;100914.09;4840796;28;98278;-58
2022/07/20 08:19:41;;;;;;;;;;;;;;;41.64;21.91;100919.47;4840798;28;98143;-58
2022/07/20 08:22:34;;;;;;;;;;;;;;;42.10;21.44;100896.78;4836953;28;98237;-58
2022/07/20 08:25:27;;;;;;;;;;;;;;;42.66;20.92;100891.75;4840181;28;97905;-58
2022/07/20 08:28:31;;;;;;;;;;;;;;;43.17;20.12;100890.03;4841144;28;98288;-63
2022/07/20 08:31:24;;;;;;;;;;;;;;;43.81;19.90;100881.75;4841085;28;98591;-62
2022/07/20 08:34:16;;;;;;;;;;;;;;;44.28;18.89;100884.91;4841579;28;98006;-63
2022/07/20 08:37:09;;;;;;;;;;;;;;;44.71;19.03;100888.16;4841668;28;98135;-63
2022/07/20 08:40:02;;;;;;;;;;;;;;;45.21;18.77;100879.50;4841702;28;98279;-64
2022/07/20 08:42:54;;;;;;;;;;;;;;;45.49;18.18;100879.84;4824504;28;99227;-58
2022/07/20 08:45:48;;;;;;;;;;;;;;;45.69;17.56;100876.16;4840728;28;97940;-58
2022/07/20 08:48:41;;;;;;;;;;;;;;;46.11;17.54;100880.44;4839624;28;98035;-58
2022/07/20 08:51:33;;;;;;;;;;;;;;;46.53;17.18;100878.94;4840897;28;98096;-63
2022/07/20 08:54:26;;;;;;;;;;;;;;;46.90;16.63;100879.69;4841164;28;98773;-58
2022/07/20 08:57:42;;;;;;;;;;;;;;;47.29;16.40;100875.44;4840614;28;98131;-58
2022/07/20 09:00:35;;;;;;;;;;;;;;;47.84;16.34;100868.31;4825287;28;97818;-58
2022/07/20 09:03:28;;;;;;;;;;;;;;;48.42;15.27;100872.19;4840381;28;98370;-58
2022/07/20 09:06:41;;;;;;;;;;;;;;;48.91;14.94;100866.84;4894856;28;98048;-58
2022/07/20 09:09:34;;;;;;;;;;;;;;;49.51;14.86;100859.78;4843085;28;98625;-58
2022/07/20 09:12:27;;;;;;;;;;;;;;;50.03;14.75;100865.34;4840126;28;98126;-64
2022/07/20 09:15:24;;;;;;;;;;;;;;;50.53;14.62;100860.44;4822387;28;98348;-58
2022/07/20 09:18:48;;;;;;;;;;;;;;;51.00;13.12;100860.94;4826480;28;98647;-64
2022/07/20 09:21:45;;;;;;;;;;;;;;;51.37;13.52;100853.66;4842760;28;98075;-64
2022/07/20 09:24:38;;;;;;;;;;;;;;;51.54;13.09;100854.16;4840280;28;97917;-65
2022/07/20 09:27:31;;;;;;;;;;;;;;;51.89;13.10;100846.56;4895733;28;98932;-58
2022/07/20 09:30:41;;;;;;;;;;;;;;;51.62;12.54;100842.06;4839915;28;98308;-59
2022/07/20 09:33:34;;;;;;;;;;;;;;;51.10;12.82;100832.66;4840473;28;98093;-58
2022/07/20 09:36:36;;;;;;;;;;;;;;;50.62;12.28;100827.78;4840955;28;98137;-64
2022/07/20 09:39:46;;;;;;;;;;;;;;;50.17;12.85;100829.03;4840679;28;98256;-58
2022/07/20 09:42:50;;;;;;;;;;;;;;;50.02;13.16;100814.34;4838899;28;98168;-58
2022/07/20 09:46:01;;;;;;;;;;;;;;;50.45;12.92;100825.88;4871214;28;98249;-63
2022/07/20 09:49:06;;;;;;;;;;;;;;;51.00;12.26;100820.00;4831279;28;97716;-63
2022/07/20 09:52:06;;;;;;;;;;;;;;;51.60;12.06;100818.88;4831831;28;97786;-66
2022/07/20 09:54:59;;;;;;;;;;;;;;;52.41;11.35;100827.84;4840751;28;98602;-65
2022/07/20 09:57:51;;;;;;;;;;;;;;;52.67;10.88;100811.94;4840373;28;97905;-64
2022/07/20 10:00:44;;;;;;;;;;;;;;;53.11;10.79;100820.91;4840261;28;97834;-59
2022/07/20 10:03:37;;;;;;;;;;;;;;;53.43;10.83;100815.69;4839966;28;98415;-58
2022/07/20 10:06:29;;;;;;;;;;;;;;;53.76;11.22;100809.63;4839372;28;98298;-58
2022/07/20 10:09:22;;;;;;;;;;;;;;;54.11;10.64;100805.31;4840152;28;97816;-58
2022/07/20 10:12:15;;;;;;;;;;;;;;;54.39;10.92;100813.16;4820251;28;98026;-58
2022/07/20 10:15:08;;;;;;;;;;;;;;;54.69;10.95;100806.78;4840669;28;98484;-58
2022/07/20 10:18:01;;;;;;;;;;;;;;;55.00;10.83;100806.91;4839945;28;98076;-63
2022/07/20 10:21:03;;;;;;;;;;;;;;;55.17;10.72;100803.47;4839606;28;98111;-64
2022/07/20 10:23:55;;;;;;;;;;;;;;;55.17;9.99;100806.38;4828512;28;98326;-64
2022/07/20 10:26:58;;;;;;;;;;;;;;;55.14;10.26;100809.03;4897920;28;98184;-57
2022/07/20 10:30:08;;;;;;;;;;;;;;;55.28;9.76;100806.78;4906086;28;98340;-58
2022/07/20 10:33:16;;;;;;;;;;;;;;;55.32;9.82;100797.75;4914869;28;97830;-58
2022/07/20 10:39:36;;;;;;;;;;;;;;;55.30;9.69;100792.56;4840536;28;98976;-64
2022/07/20 10:42:48;;;;;;;;;;;;;;;55.23;9.69;100790.44;4859517;28;98046;-65
2022/07/20 10:45:58;;;;;;;;;;;;;;;55.27;9.80;100776.41;4840107;28;98088;-58
2022/07/20 10:49:14;;;;;;;;;;;;;;;54.78;9.83;100774.50;4840156;28;98019;-58
2022/07/20 10:52:18;;;;;;;;;;;;;;;54.59;9.98;100769.06;4889512;28;99198;-58
2022/07/20 10:55:11;;;;;;;;;;;;;;;54.53;9.77;100768.47;4872102;28;98294;-63
2022/07/20 10:58:04;;;;;;;;;;;;;;;54.64;9.93;100773.16;4839341;28;97905;-64
2022/07/20 11:01:14;;;;;;;;;;;;;;;54.92;10.01;100769.41;4840001;28;97815;-58
2022/07/20 11:04:24;;;;;;;;;;;;;;;55.15;10.22;100755.00;4839075;28;99082;-58
2022/07/20 11:07:17;;;;;;;;;;;;;;;55.51;9.87;100749.09;4864461;28;98982;-63
2022/07/20 11:10:21;;;;;;;;;;;;;;;55.50;9.97;100750.44;4912977;28;97804;-57
2022/07/20 11:13:43;;;;;;;;;;;;;;;55.28;10.15;100754.84;4839242;28;97853;-65
2022/07/20 11:16:47;;;;;;;;;;;;;;;55.03;10.10;100745.94;4875838;28;98031;-58
2022/07/20 11:19:39;;;;;;;;;;;;;;;55.08;9.80;100752.88;4839936;28;98289;-58
2022/07/20 11:22:32;;;;;;;;;;;;;;;55.16;9.93;100742.09;4899367;28;97762;-58
2022/07/20 11:25:26;;;;;;;;;;;;;;;55.17;10.31;100737.09;4840569;28;97762;-63
2022/07/20 11:28:37;;;;;;;;;;;;;;;55.11;9.98;100740.19;4842199;28;98885;-63
2022/07/20 11:31:30;;;;;;;;;;;;;;;54.94;9.76;100719.78;4886456;28;98598;-58
2022/07/20 11:34:22;;;;;;;;;;;;;;;54.76;9.73;100730.31;4842162;28;98014;-58
2022/07/20 11:37:16;;;;;;;;;;;;;;;54.34;10.32;100719.75;4842759;28;97987;-63
2022/07/20 11:40:09;;;;;;;;;;;;;;;54.03;10.31;100712.28;4842043;28;98252;-64
2022/07/20 11:43:13;;;;;;;;;;;;;;;53.74;10.92;100711.53;4841254;28;97897;-63
2022/07/20 11:46:17;;;;;;;;;;;;;;;53.50;11.11;100706.94;4842446;28;98293;-58
2022/07/20 11:49:20;;;;;;;;;;;;;;;53.17;11.20;100703.56;4837720;28;97994;-63
2022/07/20 11:52:29;;;;;;;;;;;;;;;52.82;11.07;100713.56;4843518;28;98565;-62
2022/07/20 11:55:22;;;;;;;;;;;;;;;52.46;11.09;100711.97;4887108;28;98619;-64
2022/07/20 11:58:32;;;;;;;;;;;;;;;52.31;11.11;100711.03;4842139;28;98019;-63
2022/07/20 12:01:37;;;;;;;;;;;;;;;52.23;11.68;100708.03;4885770;28;98171;-58
2022/07/20 12:04:30;;;;;;;;;;;;;;;52.33;11.61;100694.78;4842017;28;98321;-58
2022/07/20 12:10:26;;;;;;;;;;;;;;;52.25;10.88;100708.28;4871616;28;98165;-63
2022/07/20 12:13:51;;;;;;;;;;;;;;;51.11;11.46;100693.63;4907512;28;98095;-63
2022/07/20 12:17:09;;;;;;;;;;;;;;;49.22;12.16;100698.22;4857173;28;99072;-64
2022/07/20 12:20:03;;;;;;;;;;;;;;;49.17;12.37;100701.88;4881528;28;98027;-58
2022/07/20 12:23:07;;;;;;;;;;;;;;;49.47;12.25;100694.06;4916133;28;99518;-63
2022/07/20 12:26:08;;;;;;;;;;;;;;;49.67;12.30;100694.94;4899336;28;97869;-63
2022/07/20 12:29:01;;;;;;;;;;;;;;;49.46;12.33;100692.53;4904633;28;98984;-57
2022/07/20 12:31:53;;;;;;;;;;;;;;;49.17;12.36;100696.16;4898397;28;98201;-58
2022/07/20 12:34:58;;;;;;;;;;;;;;;48.57;12.55;100685.34;4901933;28;97912;-64
2022/07/20 12:38:19;;;;;;;;;;;;;;;48.05;12.57;100689.72;4902318;28;98418;-58
2022/07/20 12:41:23;;;;;;;;;;;;;;;47.66;12.97;100681.22;4923627;28;98559;-57
2022/07/20 12:44:26;;;;;;;;;;;;;;;47.17;13.47;100678.63;4864067;28;98211;-57
2022/07/20 12:47:19;;;;;;;;;;;;;;;46.97;13.66;100673.19;4933465;28;98294;-57
2022/07/20 12:50:11;;;;;;;;;;;;;;;46.76;13.42;100678.28;4882249;28;98173;-57
2022/07/20 12:53:04;;;;;;;;;;;;;;;46.74;13.59;100678.03;4932850;28;97984;-63
2022/07/20 12:55:57;;;;;;;;;;;;;;;46.20;13.83;100663.88;4932166;28;98496;-64
2022/07/20 12:58:49;;;;;;;;;;;;;;;45.27;14.37;100664.22;4896401;28;98124;-57
2022/07/20 13:01:43;;;;;;;;;;;;;;;44.98;14.27;100660.34;4901311;28;97954;-57
2022/07/20 13:04:35;;;;;;;;;;;;;;;45.03;14.67;100665.28;4928600;28;98078;-57
2022/07/20 13:07:28;;;;;;;;;;;;;;;45.67;14.33;100665.31;4918267;28;98032;-57
2022/07/20 13:10:21;;;;;;;;;;;;;;;46.15;14.32;100659.69;4890943;28;98100;-62
2022/07/20 13:13:13;;;;;;;;;;;;;;;46.31;14.01;100648.91;4911228;28;97855;-62
2022/07/20 13:16:06;;;;;;;;;;;;;;;46.13;14.28;100650.06;4937328;28;98490;-62
2022/07/20 13:18:59;;;;;;;;;;;;;;;46.09;14.39;100656.00;4917719;28;98605;-57
2022/07/20 13:21:51;;;;;;;;;;;;;;;45.97;14.21;100643.03;4914590;28;97829;-57
2022/07/20 13:24:44;;;;;;;;;;;;;;;46.13;14.29;100650.06;4899927;28;98050;-64
2022/07/20 13:27:37;;;;;;;;;;;;;;;46.26;14.24;100642.66;4901255;28;99655;-64
2022/07/20 13:30:29;;;;;;;;;;;;;;;46.29;14.11;100640.06;4912407;28;100633;-63
2022/07/20 13:33:23;;;;;;;;;;;;;;;46.12;14.31;100628.59;4918224;28;98033;-63
2022/07/20 13:36:16;;;;;;;;;;;;;;;45.91;14.51;100628.78;4904875;28;97906;-64
2022/07/20 13:39:08;;;;;;;;;;;;;;;45.74;14.56;100627.88;4932842;28;98686;-62
2022/07/20 13:42:01;;;;;;;;;;;;;;;45.49;14.31;100626.69;4936248;28;98525;-57
2022/07/20 13:44:54;;;;;;;;;;;;;;;45.25;14.65;100615.63;4935598;28;98130;-62
2022/07/20 13:47:46;;;;;;;;;;;;;;;45.05;14.69;100611.59;4936119;28;98039;-57
2022/07/20 13:50:39;;;;;;;;;;;;;;;45.00;14.87;100618.00;4937354;28;98683;-63
2022/07/20 13:53:41;;;;;;;;;;;;;;;44.81;14.96;100620.41;4935265;28;99125;-57
2022/07/20 13:56:34;;;;;;;;;;;;;;;44.12;15.00;100622.16;4936408;28;97974;-63
2022/07/20 13:59:27;;;;;;;;;;;;;;;43.74;15.65;100611.84;4913396;28;98455;-64
2022/07/20 14:02:20;;;;;;;;;;;;;;;43.58;15.73;100613.94;4896967;28;98258;-57
2022/07/20 14:05:12;;;;;;;;;;;;;;;43.51;15.66;100619.22;4926391;28;98531;-63
2022/07/20 14:08:05;;;;;;;;;;;;;;;43.38;15.69;100605.34;4841683;28;98282;-59
2022/07/20 14:10:58;;;;;;;;;;;;;;;43.13;16.10;100606.78;4901221;28;98367;-63
2022/07/20 14:13:50;;;;;;;;;;;;;;;42.86;16.18;100613.50;4899610;28;98457;-63
2022/07/20 14:16:44;;;;;;;;;;;;;;;42.63;15.95;100610.22;4919632;28;98537;-63
2022/07/20 14:19:37;;;;;;;;;;;;;;;42.36;16.20;100601.97;4916242;28;97944;-57
2022/07/20 14:22:29;;;;;;;;;;;;;;;42.20;16.41;100608.84;4894795;28;97900;-57
2022/07/20 14:25:22;;;;;;;;;;;;;;;42.05;16.15;100608.78;4904765;28;98413;-57
2022/07/20 14:28:15;;;;;;;;;;;;;;;41.84;16.55;100609.88;4847077;28;99293;-63
2022/07/20 14:31:08;;;;;;;;;;;;;;;41.48;16.61;100610.84;4908278;28;98033;-62
2022/07/20 14:34:00;;;;;;;;;;;;;;;41.14;16.53;100607.16;4915722;28;98323;-62
2022/07/20 14:36:54;;;;;;;;;;;;;;;40.81;17.13;100598.59;4914378;28;98964;-56
2022/07/20 14:39:46;;;;;;;;;;;;;;;40.62;17.53;100606.31;4916619;28;98162;-56
2022/07/20 14:42:39;;;;;;;;;;;;;;;40.37;17.41;100602.53;4935619;28;98203;-57
2022/07/20 14:45:33;;;;;;;;;;;;;;;40.12;17.55;100597.16;4904971;28;98104;-56
2022/07/20 14:48:26;;;;;;;;;;;;;;;39.97;17.77;100599.78;4920903;28;98976;-64
2022/07/20 14:51:19;;;;;;;;;;;;;;;39.89;17.48;100604.16;4931247;28;98470;-56
2022/07/20 14:54:12;;;;;;;;;;;;;;;39.94;17.73;100593.03;4873287;28;98588;-61
2022/07/20 14:57:04;;;;;;;;;;;;;;;39.97;17.52;100594.13;4909700;28;97924;-62
2022/07/20 14:59:57;;;;;;;;;;;;;;;40.08;17.93;100588.03;4872690;28;100609;-63
2022/07/20 15:02:50;;;;;;;;;;;;;;;40.10;17.60;100588.38;4897333;28;98473;-57
2022/07/20 15:05:42;;;;;;;;;;;;;;;40.13;17.74;100588.25;4936484;28;98016;-62
2022/07/20 15:08:35;;;;;;;;;;;;;;;40.11;17.53;100581.47;4882487;28;98687;-57